createdAt,value
2022-09-10T00:02:14.217Z,96.49
2022-09-10T00:04:44.198Z,97.74
2022-09-10T00:07:14.238Z,97.93
2022-09-10T00:09:44.653Z,97.55
2022-09-10T00:12:16.170Z,97.80
2022-09-10T00:14:46.744Z,97.45
2022-09-10T00:17:16.616Z,97.44
2022-09-10T00:19:48.353Z,96.98
2022-09-10T00:22:18.293Z,94.95
2022-09-10T00:24:48.719Z,96.90
2022-09-10T00:27:18.725Z,97.46
2022-09-10T00:29:48.715Z,97.64
2022-09-10T00:32:18.653Z,97.19
2022-09-10T00:34:49.742Z,97.80
2022-09-10T00:37:20.428Z,97.92
2022-09-10T00:39:50.946Z,98.26
2022-09-10T00:42:21.186Z,98.84
2022-09-10T00:45:00.820Z,99.38
2022-09-10T00:47:37.542Z,99.34
2022-09-10T00:50:35.902Z,99.99
2022-09-10T00:53:14.024Z,99.78
2022-09-10T00:55:48.155Z,99.55
2022-09-10T00:58:22.110Z,98.64
2022-09-10T01:00:56.492Z,99.99
2022-09-10T01:03:27.100Z,99.50
2022-09-10T01:05:59.382Z,99.99
2022-09-10T01:08:30.167Z,99.59
2022-09-10T01:11:21.791Z,99.99
2022-09-10T01:14:14.043Z,99.99
2022-09-10T01:16:50.510Z,99.99
2022-09-10T01:19:57.900Z,99.99
2022-09-10T01:22:34.163Z,99.99
2022-09-10T01:25:07.253Z,99.99
2022-09-10T01:27:40.530Z,99.99
2022-09-10T01:30:15.986Z,99.99
2022-09-10T01:32:58.116Z,99.99
2022-09-10T01:35:43.549Z,99.99
2022-09-10T01:38:22.473Z,99.79
2022-09-10T01:40:57.281Z,99.99
2022-09-10T01:43:31.412Z,99.99
2022-09-10T01:46:26.843Z,99.99
2022-09-10T01:49:05.703Z,99.99
2022-09-10T01:52:04.253Z,99.99
2022-09-10T01:54:38.734Z,99.99
2022-09-10T01:57:21.750Z,99.99
2022-09-10T02:00:03.116Z,99.99
2022-09-10T02:02:54.001Z,99.99
2022-09-10T02:05:25.648Z,99.99
2022-09-10T02:08:06.676Z,99.99
2022-09-10T02:10:48.682Z,99.99
2022-09-10T02:13:19.306Z,99.99
2022-09-10T02:16:14.184Z,99.99
2022-09-10T02:18:47.095Z,99.99
2022-09-10T02:21:17.961Z,99.99
2022-09-10T02:23:55.238Z,99.99
2022-09-10T02:26:28.023Z,99.99
2022-09-10T02:28:59.244Z,99.99
2022-09-10T02:31:29.939Z,99.99
2022-09-10T02:34:00.516Z,99.99
2022-09-10T02:36:33.081Z,99.99
2022-09-10T02:39:05.541Z,99.99
2022-09-10T02:41:36.485Z,99.99
2022-09-10T02:44:06.906Z,99.99
2022-09-10T02:46:37.146Z,99.99
2022-09-10T02:49:07.769Z,99.99
2022-09-10T02:51:41.547Z,99.99
2022-09-10T02:54:11.783Z,99.99
2022-09-10T02:56:41.623Z,99.99
2022-09-10T02:59:11.619Z,99.99
2022-09-10T03:01:41.958Z,99.99
2022-09-10T03:04:12.224Z,99.99
2022-09-10T03:06:42.474Z,99.99
2022-09-10T03:09:12.615Z,99.99
2022-09-10T03:11:43.015Z,99.99
2022-09-10T03:14:15.233Z,99.99
2022-09-10T03:16:48.496Z,99.99
2022-09-10T03:19:19.187Z,99.99
2022-09-10T03:21:49.314Z,99.99
2022-09-10T03:24:19.386Z,99.99
2022-09-10T03:26:49.385Z,99.99
2022-09-10T03:29:19.410Z,99.99
2022-09-10T03:31:49.682Z,99.99
2022-09-10T03:34:20.382Z,99.99
2022-09-10T03:36:51.091Z,99.99
2022-09-10T03:39:22.307Z,99.99
2022-09-10T03:41:54.827Z,99.99
2022-09-10T03:44:25.103Z,99.99
2022-09-10T03:46:54.940Z,99.99
2022-09-10T03:49:24.946Z,99.99
2022-09-10T03:51:55.688Z,99.99
2022-09-10T03:54:26.943Z,99.99
2022-09-10T03:56:56.991Z,99.99
2022-09-10T03:59:27.723Z,99.99
2022-09-10T04:02:01.710Z,99.99
2022-09-10T04:04:33.214Z,99.99
2022-09-10T04:07:03.302Z,99.99
2022-09-10T04:09:35.248Z,99.99
2022-09-10T04:12:06.324Z,99.99
2022-09-10T04:14:37.986Z,99.99
2022-09-10T04:17:08.311Z,99.99
2022-09-10T04:19:39.395Z,99.99
2022-09-10T04:22:09.733Z,99.99
2022-09-10T04:24:41.369Z,99.99
2022-09-10T04:27:11.557Z,99.99
2022-09-10T04:29:44.258Z,99.99
2022-09-10T04:32:15.987Z,99.99
2022-09-10T04:34:47.091Z,99.99
2022-09-10T04:37:19.298Z,99.99
2022-09-10T04:39:50.531Z,99.99
2022-09-10T04:42:21.686Z,99.99
2022-09-10T04:44:53.746Z,99.99
2022-09-10T04:47:25.475Z,99.99
2022-09-10T04:49:55.987Z,99.99
2022-09-10T04:52:26.694Z,99.99
2022-09-10T04:54:57.540Z,99.99
2022-09-10T04:57:30.238Z,99.99
2022-09-10T05:00:00.481Z,99.99
2022-09-10T05:02:30.530Z,99.99
2022-09-10T05:05:01.081Z,99.99
2022-09-10T05:07:32.134Z,99.99
2022-09-10T05:10:04.310Z,99.99
2022-09-10T05:12:34.399Z,99.99
2022-09-10T05:15:05.905Z,99.99
2022-09-10T05:17:36.744Z,99.99
2022-09-10T05:20:08.893Z,99.99
2022-09-10T05:22:44.093Z,99.99
2022-09-10T05:25:15.796Z,99.99
2022-09-10T05:27:46.117Z,99.99
2022-09-10T05:30:21.128Z,99.99
2022-09-10T05:32:54.431Z,99.99
2022-09-10T05:35:25.234Z,99.99
2022-09-10T05:37:58.674Z,99.99
2022-09-10T05:40:30.364Z,99.99
2022-09-10T05:43:01.565Z,99.99
2022-09-10T05:45:32.497Z,99.99
2022-09-10T05:48:05.626Z,99.99
2022-09-10T05:50:35.719Z,99.99
2022-09-10T05:53:06.560Z,99.99
2022-09-10T05:55:36.799Z,99.99
2022-09-10T05:58:09.293Z,99.99
2022-09-10T06:00:44.595Z,99.99
2022-09-10T06:03:16.101Z,99.99
2022-09-10T06:05:54.233Z,99.99
2022-09-10T06:08:28.177Z,99.99
2022-09-10T06:11:07.086Z,99.99
2022-09-10T06:13:45.144Z,99.99
2022-09-10T06:16:16.509Z,99.99
2022-09-10T06:18:47.846Z,99.99
2022-09-10T06:21:24.975Z,99.99
2022-09-10T06:23:58.889Z,99.99
2022-09-10T06:26:32.278Z,99.99
2022-09-10T06:29:07.573Z,99.99
2022-09-10T06:31:38.246Z,99.99
2022-09-10T06:34:09.320Z,99.99
2022-09-10T06:36:40.410Z,99.99
2022-09-10T06:39:11.296Z,99.99
2022-09-10T06:41:54.858Z,99.99
2022-09-10T06:44:43.059Z,99.99
2022-09-10T06:48:25.374Z,99.99
2022-09-10T06:50:37.037Z,99.99
2022-09-10T06:53:07.480Z,99.99
2022-09-10T06:55:37.549Z,99.99
2022-09-10T06:58:08.470Z,99.99
2022-09-10T07:00:41.053Z,99.99
2022-09-10T07:03:11.699Z,99.99
2022-09-10T07:05:42.322Z,99.99
2022-09-10T07:08:17.144Z,99.99
2022-09-10T07:10:53.024Z,99.99
2022-09-10T07:13:24.388Z,99.99
2022-09-10T07:15:54.804Z,99.99
2022-09-10T07:18:25.796Z,99.99
2022-09-10T07:20:56.283Z,99.99
2022-09-10T07:23:26.213Z,99.99
2022-09-10T07:25:56.256Z,99.99
2022-09-10T07:28:43.580Z,99.99
2022-09-10T07:31:24.875Z,99.99
2022-09-10T07:33:56.531Z,99.99
2022-09-10T07:36:27.259Z,99.99
2022-09-10T07:39:02.718Z,99.99
2022-09-10T07:41:36.604Z,99.99
2022-09-10T07:44:10.436Z,99.99
2022-09-10T07:46:45.131Z,99.99
2022-09-10T07:49:17.836Z,99.99
2022-09-10T07:51:59.674Z,99.99
2022-09-10T07:54:40.088Z,99.99
2022-09-10T07:57:10.638Z,99.99
2022-09-10T07:59:40.524Z,99.99
2022-09-10T08:02:16.565Z,99.99
2022-09-10T08:04:55.642Z,99.99
2022-09-10T08:07:26.107Z,99.99
2022-09-10T08:09:56.363Z,99.99
2022-09-10T08:12:27.618Z,99.99
2022-09-10T08:14:58.998Z,99.99
2022-09-10T08:17:33.367Z,99.99
2022-09-10T08:20:06.004Z,99.99
2022-09-10T08:22:37.377Z,99.99
2022-09-10T08:25:08.700Z,99.99
2022-09-10T08:27:40.155Z,99.99
2022-09-10T08:30:11.678Z,99.99
2022-09-10T08:32:42.236Z,99.99
2022-09-10T08:35:13.127Z,99.99
2022-09-10T08:37:44.948Z,99.99
2022-09-10T08:40:17.756Z,99.99
2022-09-10T08:42:51.483Z,99.99
2022-09-10T08:45:34.012Z,99.99
2022-09-10T08:48:25.036Z,99.99
2022-09-10T08:51:11.896Z,99.99
2022-09-10T08:53:46.920Z,99.99
2022-09-10T08:56:21.542Z,99.99
2022-09-10T08:59:00.270Z,99.99
2022-09-10T09:01:41.663Z,99.99
2022-09-10T09:04:43.702Z,99.99
2022-09-10T09:07:18.176Z,99.99
2022-09-10T09:09:53.237Z,99.99
2022-09-10T09:12:35.634Z,99.99
2022-09-10T09:15:28.530Z,99.99
2022-09-10T09:18:32.178Z,99.99
2022-09-10T09:21:14.617Z,99.99
2022-09-10T09:24:12.602Z,99.99
2022-09-10T09:26:51.444Z,99.99
2022-09-10T09:29:44.869Z,99.99
2022-09-10T09:32:19.602Z,99.99
2022-09-10T09:35:11.563Z,99.99
2022-09-10T09:37:49.410Z,99.99
2022-09-10T09:40:44.694Z,99.99
2022-09-10T09:43:58.198Z,99.99
2022-09-10T09:46:29.668Z,99.99
2022-09-10T09:49:04.286Z,99.99
2022-09-10T09:51:37.992Z,99.99
2022-09-10T09:57:18.235Z,99.99
2022-09-10T09:59:50.429Z,99.99
2022-09-10T10:02:31.575Z,99.99
2022-09-10T10:05:08.549Z,99.99
2022-09-10T10:07:39.235Z,99.99
2022-09-10T10:10:22.457Z,99.99
2022-09-10T10:12:54.896Z,99.99
2022-09-10T10:15:43.039Z,99.99
2022-09-10T10:18:33.649Z,99.99
2022-09-10T10:21:32.691Z,99.99
2022-09-10T10:24:03.283Z,99.99
2022-09-10T10:26:35.978Z,99.99
2022-09-10T10:29:20.078Z,99.99
2022-09-10T10:31:52.591Z,99.99
2022-09-10T10:34:55.089Z,99.99
2022-09-10T10:37:43.726Z,99.99
2022-09-10T10:40:28.256Z,99.99
2022-09-10T10:43:16.388Z,99.99
2022-09-10T10:45:55.562Z,99.99
2022-09-10T10:48:31.024Z,99.99
2022-09-10T10:51:16.269Z,99.99
2022-09-10T10:53:49.961Z,99.59
2022-09-10T10:56:43.982Z,99.99
2022-09-10T10:59:32.430Z,99.99
2022-09-10T11:02:23.960Z,99.78
2022-09-10T11:04:56.905Z,99.97
2022-09-10T11:07:41.347Z,99.37
2022-09-10T11:10:20.885Z,99.87
2022-09-10T11:13:07.262Z,99.99
2022-09-10T11:15:42.731Z,98.88
2022-09-10T11:18:35.191Z,99.99
2022-09-10T11:21:09.817Z,99.83
2022-09-10T11:24:02.611Z,99.92
2022-09-10T11:26:41.468Z,98.71
2022-09-10T11:29:26.582Z,99.47
2022-09-10T11:31:56.578Z,99.57
2022-09-10T11:34:59.083Z,99.71
2022-09-10T11:37:49.913Z,99.75
2022-09-10T11:40:34.439Z,99.45
2022-09-10T11:43:16.195Z,99.44
2022-09-10T11:45:54.474Z,99.16
2022-09-10T11:48:33.409Z,99.09
2022-09-10T11:51:09.891Z,99.10
2022-09-10T11:53:40.125Z,99.63
2022-09-10T11:56:15.337Z,98.84
2022-09-10T11:59:12.847Z,98.11
2022-09-10T12:01:50.461Z,98.29
2022-09-10T12:04:43.673Z,98.62
2022-09-10T12:07:38.008Z,98.10
2022-09-10T12:10:38.218Z,98.61
2022-09-10T12:13:16.389Z,98.40
2022-09-10T12:16:01.363Z,98.18
2022-09-10T12:18:43.006Z,98.78
2022-09-10T12:21:43.069Z,97.57
2022-09-10T12:24:37.338Z,97.51
2022-09-10T12:27:08.992Z,97.39
2022-09-10T12:29:43.784Z,96.53
2022-09-10T12:32:23.542Z,95.69
2022-09-10T12:35:33.395Z,96.70
2022-09-10T12:38:43.353Z,97.11
2022-09-10T12:41:34.597Z,95.82
2022-09-10T12:44:26.148Z,95.94
2022-09-10T12:47:14.776Z,95.81
2022-09-10T12:49:54.474Z,92.28
2022-09-10T12:52:54.607Z,92.33
2022-09-10T12:55:52.073Z,92.75
2022-09-10T12:58:34.976Z,93.18
2022-09-10T13:01:37.073Z,93.25
2022-09-10T13:04:17.587Z,91.47
2022-09-10T13:06:51.220Z,90.38
2022-09-10T13:09:41.498Z,91.51
2022-09-10T13:12:25.111Z,90.92
2022-09-10T13:14:59.199Z,90.72
2022-09-10T13:18:01.134Z,91.87
2022-09-10T13:20:34.062Z,90.41
2022-09-10T13:23:10.742Z,89.70
2022-09-10T13:25:44.214Z,90.47
2022-09-10T13:28:34.048Z,91.22
2022-09-10T13:31:19.568Z,90.02
2022-09-10T13:33:55.688Z,89.62
2022-09-10T13:36:34.480Z,89.13
2022-09-10T13:39:41.152Z,87.33
2022-09-10T13:42:26.158Z,86.87
2022-09-10T13:45:14.986Z,88.24
2022-09-10T13:48:04.454Z,89.69
2022-09-10T13:50:47.186Z,88.30
2022-09-10T13:53:19.830Z,86.03
2022-09-10T13:55:59.965Z,84.10
2022-09-10T13:58:36.532Z,83.65
2022-09-10T14:01:07.352Z,85.08
2022-09-10T14:03:40.153Z,86.90
2022-09-10T14:06:26.415Z,83.96
2022-09-10T14:09:03.247Z,82.27
2022-09-10T14:11:36.955Z,83.86
2022-09-10T14:14:18.817Z,82.23
2022-09-10T14:16:59.624Z,81.23
2022-09-10T14:19:56.648Z,80.11
2022-09-10T14:22:27.653Z,79.04
2022-09-10T14:25:02.676Z,80.93
2022-09-10T14:27:36.063Z,81.63
2022-09-10T14:30:28.192Z,82.69
2022-09-10T14:33:33.234Z,83.31
2022-09-10T14:36:35.610Z,84.42
2022-09-10T14:39:18.567Z,83.56
2022-09-10T14:41:50.304Z,83.90
2022-09-10T14:44:26.931Z,83.94
2022-09-10T14:47:14.001Z,82.44
2022-09-10T14:49:48.186Z,79.24
2022-09-10T14:52:19.095Z,75.55
2022-09-10T14:54:49.970Z,75.13
2022-09-10T14:57:20.905Z,74.09
2022-09-10T14:59:55.287Z,78.24
2022-09-10T15:02:30.150Z,76.29
2022-09-10T15:05:00.635Z,76.46
2022-09-10T15:07:31.235Z,76.48
2022-09-10T15:10:02.962Z,75.21
2022-09-10T15:12:34.406Z,74.10
2022-09-10T15:15:05.915Z,75.17
2022-09-10T15:17:36.894Z,75.41
2022-09-10T15:20:07.498Z,75.10
2022-09-10T15:22:37.448Z,74.69
2022-09-10T15:25:10.885Z,74.08
2022-09-10T15:27:42.995Z,74.13
2022-09-10T15:30:13.287Z,74.08
2022-09-10T15:32:44.036Z,72.63
2022-09-10T15:35:14.388Z,73.34
2022-09-10T15:37:44.574Z,72.26
2022-09-10T15:40:14.564Z,72.31
2022-09-10T15:42:44.544Z,72.71
2022-09-10T15:45:14.466Z,72.00
2022-09-10T15:47:44.460Z,72.04
2022-09-10T15:50:17.054Z,70.50
2022-09-10T15:52:47.646Z,71.26
2022-09-10T15:55:17.953Z,70.71
2022-09-10T15:57:51.347Z,70.35
2022-09-10T16:00:22.258Z,70.47
2022-09-10T16:02:55.049Z,70.04
2022-09-10T16:05:25.144Z,70.05
2022-09-10T16:07:55.021Z,69.27
2022-09-10T16:10:25.724Z,68.82
2022-09-10T16:12:56.058Z,68.44
2022-09-10T16:15:26.186Z,68.76
2022-09-10T16:17:55.991Z,67.27
2022-09-10T16:20:25.944Z,67.45
2022-09-10T16:22:55.860Z,68.53
2022-09-10T16:25:26.060Z,66.00
2022-09-10T16:27:55.908Z,68.01
2022-09-10T16:30:26.785Z,67.18
2022-09-10T16:32:56.795Z,66.95
2022-09-10T16:35:27.637Z,65.15
2022-09-10T16:37:58.283Z,65.24
2022-09-10T16:40:28.671Z,63.92
2022-09-10T16:42:58.609Z,63.32
2022-09-10T16:45:28.537Z,64.71
2022-09-10T16:48:04.132Z,63.13
2022-09-10T16:50:35.013Z,63.52
2022-09-10T16:53:08.974Z,64.47
2022-09-10T16:55:41.844Z,63.22
2022-09-10T16:58:12.116Z,63.65
2022-09-10T17:00:44.804Z,61.86
2022-09-10T17:03:16.489Z,61.86
2022-09-10T17:05:48.084Z,61.89
2022-09-10T17:08:18.233Z,59.27
2022-09-10T17:10:48.638Z,58.70
2022-09-10T17:13:19.013Z,58.65
2022-09-10T17:15:50.989Z,58.33
2022-09-10T17:18:21.133Z,59.24
2022-09-10T17:20:54.106Z,58.76
2022-09-10T17:23:24.605Z,58.80
2022-09-10T17:25:54.923Z,59.34
2022-09-10T17:28:24.829Z,58.43
2022-09-10T17:30:57.768Z,58.38
2022-09-10T17:33:29.449Z,57.34
2022-09-10T17:36:02.676Z,54.66
2022-09-10T17:38:35.328Z,55.72
2022-09-10T17:41:06.354Z,55.95
2022-09-10T17:43:39.066Z,56.30
2022-09-10T17:46:12.771Z,55.83
2022-09-10T17:48:46.999Z,56.45
2022-09-10T17:51:20.938Z,56.94
2022-09-10T17:53:52.366Z,57.52
2022-09-10T17:56:24.407Z,57.08
2022-09-10T17:59:02.824Z,56.03
2022-09-10T18:01:37.383Z,57.19
2022-09-10T18:04:15.549Z,57.13
2022-09-10T18:06:50.167Z,55.27
2022-09-10T18:09:23.226Z,55.46
2022-09-10T18:11:53.707Z,56.39
2022-09-10T18:14:25.575Z,57.87
2022-09-10T18:16:57.044Z,55.99
2022-09-10T18:19:27.393Z,56.85
2022-09-10T18:21:57.364Z,56.75
2022-09-10T18:24:27.989Z,57.07
2022-09-10T18:26:59.073Z,55.90
2022-09-10T18:29:31.336Z,56.40
2022-09-10T18:32:03.018Z,57.56
2022-09-10T18:34:33.742Z,57.94
2022-09-10T18:37:05.055Z,58.19
2022-09-10T18:39:35.842Z,58.69
2022-09-10T18:42:07.461Z,59.21
2022-09-10T18:44:38.210Z,59.01
2022-09-10T18:47:28.055Z,58.00
2022-09-10T18:50:01.230Z,57.47
2022-09-10T18:52:31.579Z,57.08
2022-09-10T18:55:02.249Z,57.29
2022-09-10T18:57:33.002Z,57.73
2022-09-10T19:00:03.220Z,59.03
2022-09-10T19:02:33.163Z,58.31
2022-09-10T19:05:12.047Z,59.66
2022-09-10T19:07:43.329Z,60.20
2022-09-10T19:10:13.765Z,59.98
2022-09-10T19:12:43.793Z,60.25
2022-09-10T19:15:13.853Z,60.98
2022-09-10T19:17:44.140Z,60.96
2022-09-10T19:20:14.028Z,60.95
2022-09-10T19:22:45.716Z,60.57
2022-09-10T19:25:15.866Z,60.64
2022-09-10T19:27:46.848Z,60.17
2022-09-10T19:30:17.233Z,60.96
2022-09-10T19:32:47.635Z,62.10
2022-09-10T19:35:18.071Z,61.94
2022-09-10T19:37:49.551Z,63.29
2022-09-10T19:40:19.958Z,64.66
2022-09-10T19:42:50.680Z,64.02
2022-09-10T19:45:20.584Z,63.72
2022-09-10T19:47:50.508Z,62.98
2022-09-10T19:50:23.280Z,64.36
2022-09-10T19:52:54.939Z,65.73
2022-09-10T19:55:28.169Z,65.97
2022-09-10T19:58:00.541Z,66.19
2022-09-10T20:00:46.482Z,65.96
2022-09-10T20:03:18.199Z,67.13
2022-09-10T20:05:49.697Z,66.85
2022-09-10T20:08:19.862Z,67.49
2022-09-10T20:10:55.114Z,67.19
2022-09-10T20:13:26.230Z,66.80
2022-09-10T20:15:56.935Z,67.12
2022-09-10T20:18:31.481Z,67.14
2022-09-10T20:21:21.103Z,68.15
2022-09-10T20:23:54.607Z,68.85
2022-09-10T20:26:28.759Z,68.38
2022-09-10T20:29:05.063Z,68.71
2022-09-10T20:31:37.273Z,68.78
2022-09-10T20:34:09.278Z,68.96
2022-09-10T20:36:42.034Z,68.71
2022-09-10T20:39:14.985Z,68.93
2022-09-10T20:41:46.054Z,69.54
2022-09-10T20:44:18.609Z,69.15
2022-09-10T20:46:49.331Z,69.59
2022-09-10T20:49:19.514Z,69.95
2022-09-10T20:51:49.803Z,70.23
2022-09-10T20:54:20.573Z,69.70
2022-09-10T20:56:51.304Z,70.40
2022-09-10T20:59:25.553Z,71.05
2022-09-10T21:01:57.865Z,71.39
2022-09-10T21:04:28.257Z,71.44
2022-09-10T21:06:59.575Z,71.06
2022-09-10T21:09:30.016Z,71.17
2022-09-10T21:12:00.263Z,71.81
2022-09-10T21:14:30.172Z,72.65
2022-09-10T21:17:00.797Z,72.67
2022-09-10T21:19:31.997Z,72.67
2022-09-10T21:22:04.027Z,71.95
2022-09-10T21:24:34.189Z,72.02
2022-09-10T21:27:05.027Z,72.01
2022-09-10T21:29:35.053Z,71.86
2022-09-10T21:32:06.391Z,72.47
2022-09-10T21:34:36.934Z,72.47
2022-09-10T21:37:07.700Z,73.11
2022-09-10T21:39:37.721Z,72.93
2022-09-10T21:42:07.897Z,72.90
2022-09-10T21:44:37.918Z,73.17
2022-09-10T21:47:08.187Z,74.13
2022-09-10T21:49:38.356Z,75.19
2022-09-10T21:52:10.437Z,75.43
2022-09-10T21:54:40.570Z,76.95
2022-09-10T21:57:12.735Z,77.86
2022-09-10T21:59:43.065Z,77.79
2022-09-10T22:02:13.390Z,78.96
2022-09-10T22:04:44.224Z,80.27
2022-09-10T22:07:15.386Z,80.27
2022-09-10T22:09:46.057Z,80.79
2022-09-10T22:12:16.700Z,81.45
2022-09-10T22:14:46.642Z,80.97
2022-09-10T22:17:16.627Z,82.48
2022-09-10T22:19:46.543Z,82.87
2022-09-10T22:22:16.988Z,83.82
2022-09-10T22:24:47.381Z,83.34
2022-09-10T22:27:17.925Z,82.07
2022-09-10T22:29:48.452Z,84.05
2022-09-10T22:32:18.810Z,84.89
2022-09-10T22:34:50.192Z,84.90
2022-09-10T22:37:20.445Z,85.12
2022-09-10T22:39:50.467Z,85.59
2022-09-10T22:42:22.303Z,88.55
2022-09-10T22:44:53.212Z,85.93
2022-09-10T22:47:23.335Z,84.86
2022-09-10T22:49:53.489Z,85.75
2022-09-10T22:52:23.872Z,86.51
2022-09-10T22:54:54.650Z,86.97
2022-09-10T22:57:24.547Z,87.22
2022-09-10T22:59:55.407Z,87.05
2022-09-10T23:02:26.010Z,87.71
2022-09-10T23:04:56.553Z,88.21
2022-09-10T23:07:27.129Z,88.50
2022-09-10T23:09:57.395Z,87.11
2022-09-10T23:12:27.763Z,88.14
2022-09-10T23:14:58.396Z,88.64
2022-09-10T23:17:28.352Z,88.86
2022-09-10T23:19:58.339Z,88.85
2022-09-10T23:22:28.260Z,87.41
2022-09-10T23:24:59.490Z,87.84
2022-09-10T23:27:30.162Z,88.30
2022-09-10T23:30:00.294Z,89.29
2022-09-10T23:32:30.762Z,89.96
2022-09-10T23:35:01.675Z,89.73
2022-09-10T23:37:31.824Z,89.56
2022-09-10T23:40:01.930Z,89.60
2022-09-10T23:42:32.445Z,90.41
2022-09-10T23:45:03.289Z,91.17
2022-09-10T23:47:33.805Z,91.61
2022-09-10T23:50:04.346Z,92.17
2022-09-10T23:52:34.332Z,92.29
2022-09-10T23:55:04.194Z,92.40
2022-09-10T23:57:35.214Z,92.79
